sensor_id;sensor_type;location;lat;lon;timestamp;P1;durP1;ratioP1;P2;durP2;ratioP2
34924;SDS011;21130;51.728;8.748;2022-08-16T00:01:11;6.40;;;5.85;;
34924;SDS011;21130;51.728;8.748;2022-08-16T00:03:37;6.05;;;5.45;;
34924;SDS011;21130;51.728;8.748;2022-08-16T00:06:03;6.82;;;6.18;;
34924;SDS011;21130;51.728;8.748;2022-08-16T00:08:28;6.55;;;5.88;;
34924;SDS011;21130;51.728;8.748;2022-08-16T00:26:24;5.88;;;5.30;;
34924;SDS011;21130;51.728;8.748;2022-08-16T00:28:50;5.63;;;5.13;;
34924;SDS011;21130;51.728;8.748;2022-08-16T00:31:15;4.85;;;4.38;;
34924;SDS011;21130;51.728;8.748;2022-08-16T00:33:41;6.28;;;4.70;;
34924;SDS011;21130;51.728;8.748;2022-08-16T00:36:07;4.50;;;4.20;;
34924;SDS011;21130;51.728;8.748;2022-08-16T00:38:32;5.20;;;4.57;;
34924;SDS011;21130;51.728;8.748;2022-08-16T00:40:58;4.80;;;4.40;;
34924;SDS011;21130;51.728;8.748;2022-08-16T00:43:26;6.18;;;5.55;;
34924;SDS011;21130;51.728;8.748;2022-08-16T00:48:40;6.32;;;4.38;;
34924;SDS011;21130;51.728;8.748;2022-08-16T00:51:08;5.50;;;4.93;;
34924;SDS011;21130;51.728;8.748;2022-08-16T00:53:34;5.78;;;4.25;;
34924;SDS011;21130;51.728;8.748;2022-08-16T00:56:01;5.18;;;4.75;;
34924;SDS011;21130;51.728;8.748;2022-08-16T00:58:33;5.35;;;4.88;;
34924;SDS011;21130;51.728;8.748;2022-08-16T01:01:00;5.35;;;4.90;;
34924;SDS011;21130;51.728;8.748;2022-08-16T01:03:26;6.60;;;4.97;;
34924;SDS011;21130;51.728;8.748;2022-08-16T01:05:52;5.95;;;5.07;;
34924;SDS011;21130;51.728;8.748;2022-08-16T01:08:19;5.30;;;4.80;;
34924;SDS011;21130;51.728;8.748;2022-08-16T01:10:46;5.32;;;4.82;;
34924;SDS011;21130;51.728;8.748;2022-08-16T01:13:13;5.20;;;4.70;;
34924;SDS011;21130;51.728;8.748;2022-08-16T01:15:43;5.30;;;4.75;;
34924;SDS011;21130;51.728;8.748;2022-08-16T01:18:12;5.00;;;4.60;;
34924;SDS011;21130;51.728;8.748;2022-08-16T01:20:42;6.00;;;5.22;;
34924;SDS011;21130;51.728;8.748;2022-08-16T01:23:34;6.10;;;5.35;;
34924;SDS011;21130;51.728;8.748;2022-08-16T01:26:08;5.93;;;5.00;;
34924;SDS011;21130;51.728;8.748;2022-08-16T01:28:34;9.35;;;5.50;;
34924;SDS011;21130;51.728;8.748;2022-08-16T01:30:59;5.35;;;4.50;;
34924;SDS011;21130;51.728;8.748;2022-08-16T01:33:29;7.20;;;5.60;;
34924;SDS011;21130;51.728;8.748;2022-08-16T01:35:55;4.75;;;4.35;;
34924;SDS011;21130;51.728;8.748;2022-08-16T01:38:28;6.30;;;4.47;;
34924;SDS011;21130;51.728;8.748;2022-08-16T01:40:57;5.10;;;4.60;;
34924;SDS011;21130;51.728;8.748;2022-08-16T01:43:25;4.75;;;4.25;;
34924;SDS011;21130;51.728;8.748;2022-08-16T01:45:54;6.65;;;4.80;;
34924;SDS011;21130;51.728;8.748;2022-08-16T01:48:23;5.28;;;4.50;;
34924;SDS011;21130;51.728;8.748;2022-08-16T01:50:51;6.88;;;4.65;;
34924;SDS011;21130;51.728;8.748;2022-08-16T01:53:17;4.78;;;4.38;;
34924;SDS011;21130;51.728;8.748;2022-08-16T01:55:43;4.72;;;4.03;;
34924;SDS011;21130;51.728;8.748;2022-08-16T01:58:09;7.93;;;4.75;;
34924;SDS011;21130;51.728;8.748;2022-08-16T02:00:36;5.30;;;4.68;;
34924;SDS011;21130;51.728;8.748;2022-08-16T02:03:02;5.05;;;4.57;;
34924;SDS011;21130;51.728;8.748;2022-08-16T02:05:27;6.93;;;5.25;;
34924;SDS011;21130;51.728;8.748;2022-08-16T02:07:53;4.47;;;4.18;;
34924;SDS011;21130;51.728;8.748;2022-08-16T02:10:18;4.90;;;4.50;;
34924;SDS011;21130;51.728;8.748;2022-08-16T02:12:43;6.40;;;4.85;;
34924;SDS011;21130;51.728;8.748;2022-08-16T02:15:09;7.93;;;5.10;;
34924;SDS011;21130;51.728;8.748;2022-08-16T02:17:36;5.15;;;4.60;;
34924;SDS011;21130;51.728;8.748;2022-08-16T02:20:01;6.20;;;4.47;;
34924;SDS011;21130;51.728;8.748;2022-08-16T02:22:27;5.22;;;4.72;;
34924;SDS011;21130;51.728;8.748;2022-08-16T02:24:53;4.93;;;4.53;;
34924;SDS011;21130;51.728;8.748;2022-08-16T02:27:18;5.25;;;4.75;;
34924;SDS011;21130;51.728;8.748;2022-08-16T02:29:43;5.35;;;4.70;;
34924;SDS011;21130;51.728;8.748;2022-08-16T02:32:09;5.03;;;4.32;;
34924;SDS011;21130;51.728;8.748;2022-08-16T02:34:36;5.10;;;4.60;;
34924;SDS011;21130;51.728;8.748;2022-08-16T02:37:01;5.10;;;4.50;;
34924;SDS011;21130;51.728;8.748;2022-08-16T02:39:27;5.57;;;5.07;;
34924;SDS011;21130;51.728;8.748;2022-08-16T02:41:52;4.97;;;4.47;;
34924;SDS011;21130;51.728;8.748;2022-08-16T02:44:18;5.93;;;5.30;;
34924;SDS011;21130;51.728;8.748;2022-08-16T02:46:44;5.72;;;5.07;;
34924;SDS011;21130;51.728;8.748;2022-08-16T02:49:10;5.13;;;4.72;;
34924;SDS011;21130;51.728;8.748;2022-08-16T02:51:36;6.03;;;5.28;;
34924;SDS011;21130;51.728;8.748;2022-08-16T02:54:03;5.53;;;5.10;;
34924;SDS011;21130;51.728;8.748;2022-08-16T02:56:29;6.60;;;5.13;;
34924;SDS011;21130;51.728;8.748;2022-08-16T02:58:55;5.43;;;4.93;;
34924;SDS011;21130;51.728;8.748;2022-08-16T03:01:22;5.70;;;4.70;;
34924;SDS011;21130;51.728;8.748;2022-08-16T03:03:50;5.80;;;5.30;;
34924;SDS011;21130;51.728;8.748;2022-08-16T03:06:17;5.88;;;5.18;;
34924;SDS011;21130;51.728;8.748;2022-08-16T03:08:44;6.20;;;5.57;;
34924;SDS011;21130;51.728;8.748;2022-08-16T03:11:11;5.35;;;4.95;;
34924;SDS011;21130;51.728;8.748;2022-08-16T03:13:37;5.90;;;5.32;;
34924;SDS011;21130;51.728;8.748;2022-08-16T03:16:03;6.72;;;5.45;;
34924;SDS011;21130;51.728;8.748;2022-08-16T03:18:29;5.75;;;5.15;;
34924;SDS011;21130;51.728;8.748;2022-08-16T03:20:55;5.75;;;5.25;;
34924;SDS011;21130;51.728;8.748;2022-08-16T03:23:20;5.45;;;4.95;;
34924;SDS011;21130;51.728;8.748;2022-08-16T03:25:46;6.47;;;5.30;;
34924;SDS011;21130;51.728;8.748;2022-08-16T03:28:11;5.82;;;5.25;;
34924;SDS011;21130;51.728;8.748;2022-08-16T03:30:37;5.50;;;5.00;;
34924;SDS011;21130;51.728;8.748;2022-08-16T03:33:03;6.20;;;5.07;;
34924;SDS011;21130;51.728;8.748;2022-08-16T03:35:30;7.00;;;6.30;;
34924;SDS011;21130;51.728;8.748;2022-08-16T03:37:58;6.72;;;6.05;;
34924;SDS011;21130;51.728;8.748;2022-08-16T03:40:25;6.50;;;5.45;;
34924;SDS011;21130;51.728;8.748;2022-08-16T03:42:51;5.93;;;5.43;;
34924;SDS011;21130;51.728;8.748;2022-08-16T03:45:17;6.88;;;6.13;;
34924;SDS011;21130;51.728;8.748;2022-08-16T03:47:44;6.47;;;5.88;;
34924;SDS011;21130;51.728;8.748;2022-08-16T03:50:12;6.35;;;5.85;;
34924;SDS011;21130;51.728;8.748;2022-08-16T03:52:38;5.70;;;5.22;;
34924;SDS011;21130;51.728;8.748;2022-08-16T03:55:05;6.40;;;5.80;;
34924;SDS011;21130;51.728;8.748;2022-08-16T03:57:31;6.25;;;5.65;;
34924;SDS011;21130;51.728;8.748;2022-08-16T03:59:56;6.40;;;5.90;;
34924;SDS011;21130;51.728;8.748;2022-08-16T04:02:22;6.38;;;5.78;;
34924;SDS011;21130;51.728;8.748;2022-08-16T04:04:48;6.28;;;5.70;;
34924;SDS011;21130;51.728;8.748;2022-08-16T04:07:14;6.85;;;6.20;;
34924;SDS011;21130;51.728;8.748;2022-08-16T04:09:40;6.30;;;5.72;;
34924;SDS011;21130;51.728;8.748;2022-08-16T04:12:06;7.15;;;6.45;;
34924;SDS011;21130;51.728;8.748;2022-08-16T04:14:33;10.18;;;6.43;;
34924;SDS011;21130;51.728;8.748;2022-08-16T04:16:58;6.90;;;6.30;;
34924;SDS011;21130;51.728;8.748;2022-08-16T04:19:25;7.00;;;6.30;;
34924;SDS011;21130;51.728;8.748;2022-08-16T04:21:51;6.82;;;6.22;;
34924;SDS011;21130;51.728;8.748;2022-08-16T04:24:17;7.20;;;6.43;;
34924;SDS011;21130;51.728;8.748;2022-08-16T04:26:42;7.50;;;6.90;;
34924;SDS011;21130;51.728;8.748;2022-08-16T04:29:08;7.28;;;6.57;;
34924;SDS011;21130;51.728;8.748;2022-08-16T04:31:33;7.47;;;6.68;;
34924;SDS011;21130;51.728;8.748;2022-08-16T04:33:58;6.75;;;6.15;;
34924;SDS011;21130;51.728;8.748;2022-08-16T04:36:24;6.65;;;6.15;;
34924;SDS011;21130;51.728;8.748;2022-08-16T04:38:51;7.05;;;6.35;;
34924;SDS011;21130;51.728;8.748;2022-08-16T04:41:17;7.85;;;7.13;;
34924;SDS011;21130;51.728;8.748;2022-08-16T04:43:43;7.00;;;6.30;;
34924;SDS011;21130;51.728;8.748;2022-08-16T04:46:08;7.20;;;6.50;;
34924;SDS011;21130;51.728;8.748;2022-08-16T04:48:34;7.22;;;6.43;;
34924;SDS011;21130;51.728;8.748;2022-08-16T04:50:59;6.70;;;6.10;;
34924;SDS011;21130;51.728;8.748;2022-08-16T04:53:25;6.88;;;6.32;;
34924;SDS011;21130;51.728;8.748;2022-08-16T04:55:50;7.93;;;7.30;;
34924;SDS011;21130;51.728;8.748;2022-08-16T04:58:15;6.18;;;5.65;;
34924;SDS011;21130;51.728;8.748;2022-08-16T05:00:40;7.13;;;6.53;;
34924;SDS011;21130;51.728;8.748;2022-08-16T05:03:07;8.35;;;7.22;;
34924;SDS011;21130;51.728;8.748;2022-08-16T05:05:36;7.32;;;6.72;;
34924;SDS011;21130;51.728;8.748;2022-08-16T05:08:03;7.78;;;6.97;;
34924;SDS011;21130;51.728;8.748;2022-08-16T05:10:29;7.05;;;6.53;;
34924;SDS011;21130;51.728;8.748;2022-08-16T05:12:55;7.38;;;6.70;;
34924;SDS011;21130;51.728;8.748;2022-08-16T05:15:21;6.63;;;6.03;;
34924;SDS011;21130;51.728;8.748;2022-08-16T05:17:46;7.55;;;6.85;;
34924;SDS011;21130;51.728;8.748;2022-08-16T05:20:12;7.93;;;7.13;;
34924;SDS011;21130;51.728;8.748;2022-08-16T05:22:38;7.55;;;6.95;;
34924;SDS011;21130;51.728;8.748;2022-08-16T05:25:04;7.40;;;6.80;;
34924;SDS011;21130;51.728;8.748;2022-08-16T05:27:31;7.07;;;6.47;;
34924;SDS011;21130;51.728;8.748;2022-08-16T05:29:56;7.38;;;6.68;;
34924;SDS011;21130;51.728;8.748;2022-08-16T05:32:22;7.47;;;6.78;;
34924;SDS011;21130;51.728;8.748;2022-08-16T05:34:47;8.40;;;7.43;;
34924;SDS011;21130;51.728;8.748;2022-08-16T05:37:12;6.97;;;6.38;;
34924;SDS011;21130;51.728;8.748;2022-08-16T05:39:38;8.30;;;7.07;;
34924;SDS011;21130;51.728;8.748;2022-08-16T05:42:03;7.22;;;6.45;;
34924;SDS011;21130;51.728;8.748;2022-08-16T05:44:29;7.30;;;6.63;;
34924;SDS011;21130;51.728;8.748;2022-08-16T05:46:55;7.97;;;6.50;;
34924;SDS011;21130;51.728;8.748;2022-08-16T05:49:23;6.82;;;5.97;;
34924;SDS011;21130;51.728;8.748;2022-08-16T05:51:49;7.55;;;6.78;;
34924;SDS011;21130;51.728;8.748;2022-08-16T05:54:14;7.93;;;5.95;;
34924;SDS011;21130;51.728;8.748;2022-08-16T05:56:41;7.35;;;5.65;;
34924;SDS011;21130;51.728;8.748;2022-08-16T05:59:10;6.20;;;5.53;;
34924;SDS011;21130;51.728;8.748;2022-08-16T06:01:36;7.72;;;5.07;;
34924;SDS011;21130;51.728;8.748;2022-08-16T06:04:02;9.02;;;7.50;;
34924;SDS011;21130;51.728;8.748;2022-08-16T06:06:27;6.47;;;4.82;;
34924;SDS011;21130;51.728;8.748;2022-08-16T06:08:53;4.88;;;4.22;;
34924;SDS011;21130;51.728;8.748;2022-08-16T06:11:18;5.35;;;4.25;;
34924;SDS011;21130;51.728;8.748;2022-08-16T06:13:43;6.80;;;4.32;;
34924;SDS011;21130;51.728;8.748;2022-08-16T06:16:11;4.18;;;3.63;;
34924;SDS011;21130;51.728;8.748;2022-08-16T06:18:36;8.70;;;4.47;;
34924;SDS011;21130;51.728;8.748;2022-08-16T06:21:02;4.68;;;4.10;;
34924;SDS011;21130;51.728;8.748;2022-08-16T06:23:27;5.80;;;3.88;;
34924;SDS011;21130;51.728;8.748;2022-08-16T06:25:52;5.60;;;3.58;;
34924;SDS011;21130;51.728;8.748;2022-08-16T06:28:18;6.53;;;4.43;;
34924;SDS011;21130;51.728;8.748;2022-08-16T06:30:44;6.10;;;4.05;;
34924;SDS011;21130;51.728;8.748;2022-08-16T06:33:10;7.63;;;4.40;;
34924;SDS011;21130;51.728;8.748;2022-08-16T06:35:36;7.43;;;3.55;;
34924;SDS011;21130;51.728;8.748;2022-08-16T06:38:02;4.68;;;3.60;;
34924;SDS011;21130;51.728;8.748;2022-08-16T06:40:28;5.82;;;3.88;;
34924;SDS011;21130;51.728;8.748;2022-08-16T06:42:54;5.07;;;3.38;;
34924;SDS011;21130;51.728;8.748;2022-08-16T06:45:20;4.28;;;3.45;;
34924;SDS011;21130;51.728;8.748;2022-08-16T06:47:46;6.13;;;3.90;;
34924;SDS011;21130;51.728;8.748;2022-08-16T06:50:12;4.90;;;3.50;;
34924;SDS011;21130;51.728;8.748;2022-08-16T06:52:38;4.05;;;3.30;;
34924;SDS011;21130;51.728;8.748;2022-08-16T06:55:04;4.32;;;3.45;;
34924;SDS011;21130;51.728;8.748;2022-08-16T06:57:30;4.82;;;3.40;;
34924;SDS011;21130;51.728;8.748;2022-08-16T06:59:56;4.95;;;3.53;;
34924;SDS011;21130;51.728;8.748;2022-08-16T07:02:21;5.25;;;3.47;;
34924;SDS011;21130;51.728;8.748;2022-08-16T07:04:46;4.07;;;3.00;;
34924;SDS011;21130;51.728;8.748;2022-08-16T07:07:12;3.65;;;3.35;;
34924;SDS011;21130;51.728;8.748;2022-08-16T07:09:37;7.43;;;3.83;;
34924;SDS011;21130;51.728;8.748;2022-08-16T07:12:03;3.58;;;3.28;;
34924;SDS011;21130;51.728;8.748;2022-08-16T07:14:28;3.60;;;3.30;;
34924;SDS011;21130;51.728;8.748;2022-08-16T07:16:54;4.10;;;3.25;;
34924;SDS011;21130;51.728;8.748;2022-08-16T07:19:21;4.07;;;3.00;;
34924;SDS011;21130;51.728;8.748;2022-08-16T07:21:47;3.67;;;3.22;;
34924;SDS011;21130;51.728;8.748;2022-08-16T07:24:12;6.40;;;3.65;;
34924;SDS011;21130;51.728;8.748;2022-08-16T07:26:38;4.63;;;3.58;;
34924;SDS011;21130;51.728;8.748;2022-08-16T07:29:03;4.65;;;3.80;;
34924;SDS011;21130;51.728;8.748;2022-08-16T07:31:28;6.05;;;3.40;;
34924;SDS011;21130;51.728;8.748;2022-08-16T07:33:54;3.13;;;2.92;;
34924;SDS011;21130;51.728;8.748;2022-08-16T07:36:19;4.88;;;3.53;;
34924;SDS011;21130;51.728;8.748;2022-08-16T07:38:46;5.80;;;3.95;;
34924;SDS011;21130;51.728;8.748;2022-08-16T07:41:11;4.93;;;4.18;;
34924;SDS011;21130;51.728;8.748;2022-08-16T07:43:37;4.28;;;3.55;;
34924;SDS011;21130;51.728;8.748;2022-08-16T07:46:03;5.47;;;3.85;;
34924;SDS011;21130;51.728;8.748;2022-08-16T07:48:28;4.18;;;3.78;;
34924;SDS011;21130;51.728;8.748;2022-08-16T07:50:54;7.13;;;4.93;;
34924;SDS011;21130;51.728;8.748;2022-08-16T07:53:20;6.05;;;3.63;;
34924;SDS011;21130;51.728;8.748;2022-08-16T07:55:46;4.50;;;3.70;;
34924;SDS011;21130;51.728;8.748;2022-08-16T07:58:11;4.43;;;4.03;;
34924;SDS011;21130;51.728;8.748;2022-08-16T08:00:37;4.55;;;4.10;;
34924;SDS011;21130;51.728;8.748;2022-08-16T08:03:03;4.47;;;3.97;;
34924;SDS011;21130;51.728;8.748;2022-08-16T08:05:29;4.20;;;3.75;;
34924;SDS011;21130;51.728;8.748;2022-08-16T08:07:55;4.45;;;3.80;;
34924;SDS011;21130;51.728;8.748;2022-08-16T08:10:21;6.68;;;5.97;;
34924;SDS011;21130;51.728;8.748;2022-08-16T08:12:48;4.82;;;4.40;;
34924;SDS011;21130;51.728;8.748;2022-08-16T08:15:15;4.28;;;3.88;;
34924;SDS011;21130;51.728;8.748;2022-08-16T08:17:42;5.00;;;3.90;;
34924;SDS011;21130;51.728;8.748;2022-08-16T08:20:09;4.25;;;3.85;;
34924;SDS011;21130;51.728;8.748;2022-08-16T08:22:37;5.90;;;3.67;;
34924;SDS011;21130;51.728;8.748;2022-08-16T08:25:04;5.45;;;3.70;;
34924;SDS011;21130;51.728;8.748;2022-08-16T08:27:32;4.95;;;3.67;;
34924;SDS011;21130;51.728;8.748;2022-08-16T08:29:57;4.95;;;3.83;;
34924;SDS011;21130;51.728;8.748;2022-08-16T08:32:23;5.65;;;4.00;;
34924;SDS011;21130;51.728;8.748;2022-08-16T08:34:49;3.83;;;3.53;;
34924;SDS011;21130;51.728;8.748;2022-08-16T08:37:14;4.05;;;3.65;;
34924;SDS011;21130;51.728;8.748;2022-08-16T08:39:40;3.70;;;3.40;;
34924;SDS011;21130;51.728;8.748;2022-08-16T08:42:06;5.15;;;3.63;;
34924;SDS011;21130;51.728;8.748;2022-08-16T08:44:32;4.47;;;4.05;;
34924;SDS011;21130;51.728;8.748;2022-08-16T08:46:59;7.20;;;4.18;;
34924;SDS011;21130;51.728;8.748;2022-08-16T08:49:25;4.82;;;3.15;;
34924;SDS011;21130;51.728;8.748;2022-08-16T08:51:51;7.32;;;4.22;;
34924;SDS011;21130;51.728;8.748;2022-08-16T08:54:16;6.60;;;4.70;;
34924;SDS011;21130;51.728;8.748;2022-08-16T08:56:42;4.57;;;3.38;;
34924;SDS011;21130;51.728;8.748;2022-08-16T08:59:07;4.43;;;3.40;;
34924;SDS011;21130;51.728;8.748;2022-08-16T09:01:34;4.50;;;4.10;;
34924;SDS011;21130;51.728;8.748;2022-08-16T09:04:01;4.10;;;3.10;;
34924;SDS011;21130;51.728;8.748;2022-08-16T09:06:29;4.22;;;3.28;;
34924;SDS011;21130;51.728;8.748;2022-08-16T09:08:57;5.97;;;3.47;;
34924;SDS011;21130;51.728;8.748;2022-08-16T09:11:23;4.45;;;3.80;;
34924;SDS011;21130;51.728;8.748;2022-08-16T09:13:49;6.47;;;3.60;;
34924;SDS011;21130;51.728;8.748;2022-08-16T09:16:15;5.20;;;3.33;;
34924;SDS011;21130;51.728;8.748;2022-08-16T09:18:41;3.88;;;3.22;;
34924;SDS011;21130;51.728;8.748;2022-08-16T09:21:06;4.70;;;3.38;;
34924;SDS011;21130;51.728;8.748;2022-08-16T09:23:32;5.05;;;3.20;;
34924;SDS011;21130;51.728;8.748;2022-08-16T09:25:59;3.97;;;3.55;;
34924;SDS011;21130;51.728;8.748;2022-08-16T09:28:25;3.45;;;3.15;;
34924;SDS011;21130;51.728;8.748;2022-08-16T09:30:50;3.35;;;2.72;;
34924;SDS011;21130;51.728;8.748;2022-08-16T09:33:17;4.75;;;2.72;;
34924;SDS011;21130;51.728;8.748;2022-08-16T09:35:43;4.10;;;3.00;;
34924;SDS011;21130;51.728;8.748;2022-08-16T09:38:09;2.58;;;2.38;;
34924;SDS011;21130;51.728;8.748;2022-08-16T09:40:38;3.83;;;3.08;;
34924;SDS011;21130;51.728;8.748;2022-08-16T09:43:07;3.65;;;2.80;;
34924;SDS011;21130;51.728;8.748;2022-08-16T09:45:34;3.95;;;3.08;;
34924;SDS011;21130;51.728;8.748;2022-08-16T09:48:04;4.20;;;2.90;;
34924;SDS011;21130;51.728;8.748;2022-08-16T09:50:30;2.95;;;2.65;;
34924;SDS011;21130;51.728;8.748;2022-08-16T09:52:56;2.60;;;2.35;;
34924;SDS011;21130;51.728;8.748;2022-08-16T09:55:22;2.92;;;2.70;;
34924;SDS011;21130;51.728;8.748;2022-08-16T09:57:47;4.25;;;2.78;;
34924;SDS011;21130;51.728;8.748;2022-08-16T10:00:12;3.55;;;2.70;;
34924;SDS011;21130;51.728;8.748;2022-08-16T10:02:38;3.42;;;2.85;;
34924;SDS011;21130;51.728;8.748;2022-08-16T10:05:05;5.25;;;3.10;;
34924;SDS011;21130;51.728;8.748;2022-08-16T10:07:31;3.13;;;2.40;;
34924;SDS011;21130;51.728;8.748;2022-08-16T10:09:56;3.92;;;2.70;;
34924;SDS011;21130;51.728;8.748;2022-08-16T10:12:23;7.85;;;3.10;;
34924;SDS011;21130;51.728;8.748;2022-08-16T10:15:10;4.60;;;2.50;;
34924;SDS011;21130;51.728;8.748;2022-08-16T10:17:36;3.97;;;2.65;;
34924;SDS011;21130;51.728;8.748;2022-08-16T10:20:07;3.92;;;2.63;;
34924;SDS011;21130;51.728;8.748;2022-08-16T10:22:35;4.30;;;2.50;;
34924;SDS011;21130;51.728;8.748;2022-08-16T10:25:01;4.25;;;2.60;;
34924;SDS011;21130;51.728;8.748;2022-08-16T10:27:26;3.78;;;2.97;;
34924;SDS011;21130;51.728;8.748;2022-08-16T10:29:52;2.67;;;2.22;;
34924;SDS011;21130;51.728;8.748;2022-08-16T10:32:17;2.63;;;2.35;;
34924;SDS011;21130;51.728;8.748;2022-08-16T10:34:44;3.20;;;2.78;;
34924;SDS011;21130;51.728;8.748;2022-08-16T10:37:09;5.15;;;2.75;;
34924;SDS011;21130;51.728;8.748;2022-08-16T10:39:35;4.05;;;2.95;;
34924;SDS011;21130;51.728;8.748;2022-08-16T10:42:01;4.10;;;2.50;;
34924;SDS011;21130;51.728;8.748;2022-08-16T10:44:26;3.65;;;2.85;;
34924;SDS011;21130;51.728;8.748;2022-08-16T10:46:51;3.67;;;2.80;;
34924;SDS011;21130;51.728;8.748;2022-08-16T10:49:17;4.18;;;2.67;;
34924;SDS011;21130;51.728;8.748;2022-08-16T10:51:43;5.15;;;2.75;;
34924;SDS011;21130;51.728;8.748;2022-08-16T10:54:08;3.70;;;2.95;;
34924;SDS011;21130;51.728;8.748;2022-08-16T10:56:34;4.70;;;2.78;;
34924;SDS011;21130;51.728;8.748;2022-08-16T10:58:59;3.40;;;2.80;;
34924;SDS011;21130;51.728;8.748;2022-08-16T11:01:25;6.25;;;3.20;;
34924;SDS011;21130;51.728;8.748;2022-08-16T11:03:51;3.63;;;2.70;;
34924;SDS011;21130;51.728;8.748;2022-08-16T11:06:17;6.97;;;3.30;;
34924;SDS011;21130;51.728;8.748;2022-08-16T11:08:43;6.45;;;3.35;;
34924;SDS011;21130;51.728;8.748;2022-08-16T11:11:08;4.40;;;3.40;;
34924;SDS011;21130;51.728;8.748;2022-08-16T11:13:36;5.40;;;3.30;;
34924;SDS011;21130;51.728;8.748;2022-08-16T11:16:01;6.53;;;3.38;;
34924;SDS011;21130;51.728;8.748;2022-08-16T11:18:27;6.65;;;3.50;;
34924;SDS011;21130;51.728;8.748;2022-08-16T11:20:56;3.78;;;3.13;;
34924;SDS011;21130;51.728;8.748;2022-08-16T11:23:23;5.95;;;3.30;;
34924;SDS011;21130;51.728;8.748;2022-08-16T11:25:49;4.72;;;3.75;;
34924;SDS011;21130;51.728;8.748;2022-08-16T11:28:15;3.85;;;3.47;;
34924;SDS011;21130;51.728;8.748;2022-08-16T11:30:41;3.95;;;3.45;;
34924;SDS011;21130;51.728;8.748;2022-08-16T11:33:06;4.57;;;3.33;;
34924;SDS011;21130;51.728;8.748;2022-08-16T11:35:33;4.55;;;3.13;;
34924;SDS011;21130;51.728;8.748;2022-08-16T11:38:03;6.07;;;3.30;;
34924;SDS011;21130;51.728;8.748;2022-08-16T11:40:32;5.82;;;3.70;;
34924;SDS011;21130;51.728;8.748;2022-08-16T11:43:02;6.85;;;3.63;;
34924;SDS011;21130;51.728;8.748;2022-08-16T11:45:28;6.45;;;3.70;;
34924;SDS011;21130;51.728;8.748;2022-08-16T11:47:53;4.78;;;3.30;;
34924;SDS011;21130;51.728;8.748;2022-08-16T11:50:19;4.40;;;3.30;;
34924;SDS011;21130;51.728;8.748;2022-08-16T11:52:45;5.90;;;3.50;;
34924;SDS011;21130;51.728;8.748;2022-08-16T11:55:11;3.28;;;2.95;;
34924;SDS011;21130;51.728;8.748;2022-08-16T11:57:37;5.20;;;3.47;;
34924;SDS011;21130;51.728;8.748;2022-08-16T12:00:04;5.05;;;3.10;;
34924;SDS011;21130;51.728;8.748;2022-08-16T12:02:31;7.18;;;3.63;;
34924;SDS011;21130;51.728;8.748;2022-08-16T12:04:57;3.90;;;3.50;;
34924;SDS011;21130;51.728;8.748;2022-08-16T12:07:22;5.03;;;3.00;;
34924;SDS011;21130;51.728;8.748;2022-08-16T12:09:47;3.53;;;3.20;;
34924;SDS011;21130;51.728;8.748;2022-08-16T12:12:13;6.03;;;3.28;;
34924;SDS011;21130;51.728;8.748;2022-08-16T12:14:38;5.85;;;3.45;;
34924;SDS011;21130;51.728;8.748;2022-08-16T12:17:04;4.50;;;3.05;;
34924;SDS011;21130;51.728;8.748;2022-08-16T12:19:31;4.15;;;3.10;;
34924;SDS011;21130;51.728;8.748;2022-08-16T12:21:56;4.70;;;3.17;;
34924;SDS011;21130;51.728;8.748;2022-08-16T12:24:23;5.60;;;3.00;;
34924;SDS011;21130;51.728;8.748;2022-08-16T12:26:48;4.80;;;3.50;;
34924;SDS011;21130;51.728;8.748;2022-08-16T12:29:14;4.03;;;3.03;;
34924;SDS011;21130;51.728;8.748;2022-08-16T12:31:40;6.47;;;3.58;;
34924;SDS011;21130;51.728;8.748;2022-08-16T12:34:06;4.80;;;3.05;;
34924;SDS011;21130;51.728;8.748;2022-08-16T12:36:32;5.90;;;3.08;;
34924;SDS011;21130;51.728;8.748;2022-08-16T12:38:59;6.60;;;3.65;;
34924;SDS011;21130;51.728;8.748;2022-08-16T12:41:26;4.38;;;3.13;;
34924;SDS011;21130;51.728;8.748;2022-08-16T12:43:52;4.72;;;2.90;;
34924;SDS011;21130;51.728;8.748;2022-08-16T12:46:17;5.22;;;3.17;;
34924;SDS011;21130;51.728;8.748;2022-08-16T12:48:43;4.25;;;2.97;;
34924;SDS011;21130;51.728;8.748;2022-08-16T12:51:30;4.95;;;3.15;;
34924;SDS011;21130;51.728;8.748;2022-08-16T12:54:07;5.03;;;3.20;;
34924;SDS011;21130;51.728;8.748;2022-08-16T12:56:34;3.75;;;2.78;;
34924;SDS011;21130;51.728;8.748;2022-08-16T12:59:07;3.50;;;2.85;;
34924;SDS011;21130;51.728;8.748;2022-08-16T13:01:36;4.50;;;3.28;;
34924;SDS011;21130;51.728;8.748;2022-08-16T13:04:03;5.20;;;3.20;;
34924;SDS011;21130;51.728;8.748;2022-08-16T13:06:30;4.40;;;3.78;;
34924;SDS011;21130;51.728;8.748;2022-08-16T13:08:55;4.32;;;3.75;;
34924;SDS011;21130;51.728;8.748;2022-08-16T13:11:32;3.38;;;2.90;;
34924;SDS011;21130;51.728;8.748;2022-08-16T13:14:00;3.95;;;2.85;;
34924;SDS011;21130;51.728;8.748;2022-08-16T13:16:25;3.28;;;2.75;;
34924;SDS011;21130;51.728;8.748;2022-08-16T13:18:50;3.50;;;2.72;;
34924;SDS011;21130;51.728;8.748;2022-08-16T13:21:16;4.45;;;2.97;;
34924;SDS011;21130;51.728;8.748;2022-08-16T13:23:41;4.30;;;3.10;;
34924;SDS011;21130;51.728;8.748;2022-08-16T13:26:06;3.90;;;2.83;;
34924;SDS011;21130;51.728;8.748;2022-08-16T13:28:32;6.60;;;3.10;;
34924;SDS011;21130;51.728;8.748;2022-08-16T13:30:58;3.92;;;2.80;;
34924;SDS011;21130;51.728;8.748;2022-08-16T13:33:28;3.58;;;3.25;;
34924;SDS011;21130;51.728;8.748;2022-08-16T13:36:01;6.70;;;3.20;;
34924;SDS011;21130;51.728;8.748;2022-08-16T13:38:29;3.45;;;3.00;;
34924;SDS011;21130;51.728;8.748;2022-08-16T13:40:55;3.67;;;2.83;;
34924;SDS011;21130;51.728;8.748;2022-08-16T13:43:21;4.15;;;3.00;;
34924;SDS011;21130;51.728;8.748;2022-08-16T13:45:47;3.75;;;2.97;;
34924;SDS011;21130;51.728;8.748;2022-08-16T13:48:13;5.32;;;2.80;;
34924;SDS011;21130;51.728;8.748;2022-08-16T13:50:39;3.17;;;2.67;;
34924;SDS011;21130;51.728;8.748;2022-08-16T13:53:05;5.32;;;3.08;;
34924;SDS011;21130;51.728;8.748;2022-08-16T13:55:30;6.63;;;3.20;;
34924;SDS011;21130;51.728;8.748;2022-08-16T13:57:57;3.70;;;2.55;;
34924;SDS011;21130;51.728;8.748;2022-08-16T14:00:22;3.58;;;2.55;;
34924;SDS011;21130;51.728;8.748;2022-08-16T14:02:47;4.17;;;2.73;;
34924;SDS011;21130;51.728;8.748;2022-08-16T14:05:13;4.90;;;3.22;;
34924;SDS011;21130;51.728;8.748;2022-08-16T14:07:40;4.40;;;3.13;;
34924;SDS011;21130;51.728;8.748;2022-08-16T14:10:07;4.60;;;3.40;;
34924;SDS011;21130;51.728;8.748;2022-08-16T14:12:34;3.53;;;2.75;;
34924;SDS011;21130;51.728;8.748;2022-08-16T14:15:01;3.78;;;3.05;;
34924;SDS011;21130;51.728;8.748;2022-08-16T14:17:29;4.90;;;3.10;;
34924;SDS011;21130;51.728;8.748;2022-08-16T14:19:55;4.07;;;2.90;;
34924;SDS011;21130;51.728;8.748;2022-08-16T14:22:22;4.10;;;3.10;;
34924;SDS011;21130;51.728;8.748;2022-08-16T14:24:50;4.78;;;2.83;;
34924;SDS011;21130;51.728;8.748;2022-08-16T14:27:17;4.20;;;2.65;;
34924;SDS011;21130;51.728;8.748;2022-08-16T14:29:44;3.45;;;2.90;;
34924;SDS011;21130;51.728;8.748;2022-08-16T14:32:10;4.45;;;2.67;;
34924;SDS011;21130;51.728;8.748;2022-08-16T14:34:35;2.92;;;2.47;;
34924;SDS011;21130;51.728;8.748;2022-08-16T14:37:01;4.40;;;2.85;;
34924;SDS011;21130;51.728;8.748;2022-08-16T14:39:29;3.05;;;2.83;;
34924;SDS011;21130;51.728;8.748;2022-08-16T14:41:54;3.70;;;3.08;;
34924;SDS011;21130;51.728;8.748;2022-08-16T14:44:27;7.07;;;2.60;;
34924;SDS011;21130;51.728;8.748;2022-08-16T14:46:52;4.75;;;2.90;;
34924;SDS011;21130;51.728;8.748;2022-08-16T14:49:18;4.97;;;2.70;;
34924;SDS011;21130;51.728;8.748;2022-08-16T14:51:43;8.80;;;3.20;;
34924;SDS011;21130;51.728;8.748;2022-08-16T14:54:10;4.95;;;3.10;;
34924;SDS011;21130;51.728;8.748;2022-08-16T14:56:35;4.82;;;2.85;;
34924;SDS011;21130;51.728;8.748;2022-08-16T14:59:01;5.70;;;2.90;;
34924;SDS011;21130;51.728;8.748;2022-08-16T15:01:26;5.40;;;2.97;;